sensor_id;sensor_type;location;lat;lon;timestamp;pressure;altitude;pressure_sealevel;temperature;humidity
46394;BME280;32099;53.588;10.176;2023-03-14T00:00:46;98469.75;;;12.01;75.98
46394;BME280;32099;53.588;10.176;2023-03-14T00:03:12;98469.16;;;11.99;76.44
46394;BME280;32099;53.588;10.176;2023-03-14T00:05:37;98479.13;;;11.93;76.15
46394;BME280;32099;53.588;10.176;2023-03-14T00:08:02;98484.59;;;11.93;76.31
46394;BME280;32099;53.588;10.176;2023-03-14T00:10:27;98481.03;;;11.93;75.75
46394;BME280;32099;53.588;10.176;2023-03-14T00:12:53;98492.19;;;11.91;76.10
46394;BME280;32099;53.588;10.176;2023-03-14T00:15:18;98504.22;;;11.90;76.30
46394;BME280;32099;53.588;10.176;2023-03-14T00:17:44;98503.38;;;11.89;75.98
46394;BME280;32099;53.588;10.176;2023-03-14T00:20:09;98507.19;;;11.88;76.22
46394;BME280;32099;53.588;10.176;2023-03-14T00:22:36;98504.72;;;11.87;75.86
46394;BME280;32099;53.588;10.176;2023-03-14T00:25:03;98502.72;;;11.82;76.60
46394;BME280;32099;53.588;10.176;2023-03-14T00:27:30;98497.50;;;11.81;76.14
46394;BME280;32099;53.588;10.176;2023-03-14T00:29:55;98496.34;;;11.77;76.30
46394;BME280;32099;53.588;10.176;2023-03-14T00:32:21;98487.81;;;11.73;76.30
46394;BME280;32099;53.588;10.176;2023-03-14T00:34:46;98483.44;;;11.72;76.72
46394;BME280;32099;53.588;10.176;2023-03-14T00:37:11;98472.75;;;11.70;76.46
46394;BME280;32099;53.588;10.176;2023-03-14T00:39:36;98466.13;;;11.66;76.43
46394;BME280;32099;53.588;10.176;2023-03-14T00:42:02;98465.28;;;11.66;76.05
46394;BME280;32099;53.588;10.176;2023-03-14T00:44:27;98462.22;;;11.62;76.34
46394;BME280;32099;53.588;10.176;2023-03-14T00:46:52;98464.16;;;11.62;76.03
46394;BME280;32099;53.588;10.176;2023-03-14T00:49:18;98446.84;;;11.56;75.85
46394;BME280;32099;53.588;10.176;2023-03-14T00:51:44;98437.22;;;11.53;76.11
46394;BME280;32099;53.588;10.176;2023-03-14T00:54:09;98443.22;;;11.50;76.59
46394;BME280;32099;53.588;10.176;2023-03-14T00:56:34;98440.97;;;11.47;76.44
46394;BME280;32099;53.588;10.176;2023-03-14T00:59:00;98438.47;;;11.46;76.29
46394;BME280;32099;53.588;10.176;2023-03-14T01:01:25;98437.66;;;11.45;77.08
46394;BME280;32099;53.588;10.176;2023-03-14T01:03:51;98443.91;;;11.46;76.73
46394;BME280;32099;53.588;10.176;2023-03-14T01:06:18;98446.66;;;11.46;76.90
46394;BME280;32099;53.588;10.176;2023-03-14T01:08:46;98451.88;;;11.47;77.38
46394;BME280;32099;53.588;10.176;2023-03-14T01:11:13;98459.81;;;11.49;76.83
46394;BME280;32099;53.588;10.176;2023-03-14T01:13:40;98457.91;;;11.49;77.18
46394;BME280;32099;53.588;10.176;2023-03-14T01:16:07;98464.44;;;11.48;76.73
46394;BME280;32099;53.588;10.176;2023-03-14T01:18:34;98461.94;;;11.47;76.78
46394;BME280;32099;53.588;10.176;2023-03-14T01:21:03;98461.13;;;11.46;78.35
46394;BME280;32099;53.588;10.176;2023-03-14T01:23:34;98481.31;;;11.45;78.01
46394;BME280;32099;53.588;10.176;2023-03-14T01:25:59;98484.03;;;11.45;76.96
46394;BME280;32099;53.588;10.176;2023-03-14T01:28:24;98483.78;;;11.47;77.38
46394;BME280;32099;53.588;10.176;2023-03-14T01:30:50;98473.44;;;11.49;77.57
46394;BME280;32099;53.588;10.176;2023-03-14T01:33:15;98464.19;;;11.50;77.34
46394;BME280;32099;53.588;10.176;2023-03-14T01:35:40;98446.41;;;11.47;77.42
46394;BME280;32099;53.588;10.176;2023-03-14T01:38:06;98425.31;;;11.42;77.46
46394;BME280;32099;53.588;10.176;2023-03-14T01:40:31;98416.88;;;11.44;77.15
46394;BME280;32099;53.588;10.176;2023-03-14T01:42:57;98416.88;;;11.44;77.98
46394;BME280;32099;53.588;10.176;2023-03-14T01:48:26;98403.06;;;11.34;78.46
46394;BME280;32099;53.588;10.176;2023-03-14T01:50:56;98397.88;;;11.32;78.08
46394;BME280;32099;53.588;10.176;2023-03-14T01:53:24;98402.97;;;11.29;77.48
46394;BME280;32099;53.588;10.176;2023-03-14T01:55:50;98392.56;;;11.25;77.72
46394;BME280;32099;53.588;10.176;2023-03-14T01:58:21;98395.28;;;11.25;77.78
46394;BME280;32099;53.588;10.176;2023-03-14T02:00:50;98399.09;;;11.24;78.38
46394;BME280;32099;53.588;10.176;2023-03-14T02:03:16;98400.16;;;11.23;78.78
46394;BME280;32099;53.588;10.176;2023-03-14T02:05:43;98397.66;;;11.22;78.56
46394;BME280;32099;53.588;10.176;2023-03-14T02:08:19;98385.13;;;11.21;78.19
46394;BME280;32099;53.588;10.176;2023-03-14T02:10:49;98388.41;;;11.23;78.12
46394;BME280;32099;53.588;10.176;2023-03-14T02:13:16;98395.78;;;11.22;78.10
46394;BME280;32099;53.588;10.176;2023-03-14T02:15:43;98380.00;;;11.24;78.26
46394;BME280;32099;53.588;10.176;2023-03-14T02:18:09;98362.78;;;11.24;77.89
46394;BME280;32099;53.588;10.176;2023-03-14T02:20:49;98355.34;;;11.19;77.93
46394;BME280;32099;53.588;10.176;2023-03-14T02:23:33;98328.53;;;11.16;78.80
46394;BME280;32099;53.588;10.176;2023-03-14T02:26:14;98317.09;;;11.14;78.16
46394;BME280;32099;53.588;10.176;2023-03-14T02:28:46;98316.72;;;11.10;78.27
46394;BME280;32099;53.588;10.176;2023-03-14T02:31:11;98324.91;;;11.10;78.30
46394;BME280;32099;53.588;10.176;2023-03-14T02:33:37;98324.91;;;11.10;78.20
46394;BME280;32099;53.588;10.176;2023-03-14T02:36:07;98322.44;;;11.09;78.21
46394;BME280;32099;53.588;10.176;2023-03-14T02:39:20;98321.63;;;11.08;78.38
46394;BME280;32099;53.588;10.176;2023-03-14T02:41:33;98338.53;;;11.10;78.52
46394;BME280;32099;53.588;10.176;2023-03-14T02:43:59;98346.97;;;11.09;78.41
46394;BME280;32099;53.588;10.176;2023-03-14T02:46:24;98342.59;;;11.08;78.21
46394;BME280;32099;53.588;10.176;2023-03-14T02:48:51;98349.13;;;11.07;78.16
46394;BME280;32099;53.588;10.176;2023-03-14T02:51:21;98346.16;;;11.08;78.39
46394;BME280;32099;53.588;10.176;2023-03-14T02:53:48;98345.09;;;11.09;78.61
46394;BME280;32099;53.588;10.176;2023-03-14T02:56:13;98352.75;;;11.13;78.17
46394;BME280;32099;53.588;10.176;2023-03-14T02:58:38;98353.09;;;11.16;78.19
46394;BME280;32099;53.588;10.176;2023-03-14T03:01:04;98355.34;;;11.19;77.66
46394;BME280;32099;53.588;10.176;2023-03-14T03:03:29;98357.00;;;11.20;77.85
46394;BME280;32099;53.588;10.176;2023-03-14T03:05:55;98349.88;;;11.19;77.98
46394;BME280;32099;53.588;10.176;2023-03-14T03:08:21;98343.63;;;11.19;77.90
46394;BME280;32099;53.588;10.176;2023-03-14T03:10:48;98355.81;;;11.16;78.69
46394;BME280;32099;53.588;10.176;2023-03-14T03:13:14;98351.47;;;11.15;78.95
46394;BME280;32099;53.588;10.176;2023-03-14T03:15:40;98350.63;;;11.15;78.56
46394;BME280;32099;53.588;10.176;2023-03-14T03:18:05;98343.84;;;11.17;79.07
46394;BME280;32099;53.588;10.176;2023-03-14T03:20:31;98352.38;;;11.21;78.61
46394;BME280;32099;53.588;10.176;2023-03-14T03:22:56;98347.75;;;11.21;78.56
46394;BME280;32099;53.588;10.176;2023-03-14T03:25:23;98340.38;;;11.22;78.41
46394;BME280;32099;53.588;10.176;2023-03-14T03:27:49;98331.38;;;11.21;78.07
46394;BME280;32099;53.588;10.176;2023-03-14T03:30:14;98326.19;;;11.20;78.38
46394;BME280;32099;53.588;10.176;2023-03-14T03:32:39;98325.09;;;11.21;77.79
46394;BME280;32099;53.588;10.176;2023-03-14T03:35:05;98319.66;;;11.21;78.01
46394;BME280;32099;53.588;10.176;2023-03-14T03:37:31;98312.88;;;11.23;77.88
46394;BME280;32099;53.588;10.176;2023-03-14T03:39:57;98314.28;;;11.26;78.12
46394;BME280;32099;53.588;10.176;2023-03-14T03:42:22;98305.00;;;11.27;77.88
46394;BME280;32099;53.588;10.176;2023-03-14T03:44:48;98309.97;;;11.30;77.91
46394;BME280;32099;53.588;10.176;2023-03-14T03:47:14;98302.94;;;11.34;77.95
46394;BME280;32099;53.588;10.176;2023-03-14T03:49:40;98291.47;;;11.32;78.37
46394;BME280;32099;53.588;10.176;2023-03-14T03:52:05;98293.09;;;11.33;77.87
46394;BME280;32099;53.588;10.176;2023-03-14T03:54:30;98288.50;;;11.34;77.98
46394;BME280;32099;53.588;10.176;2023-03-14T03:56:55;98273.19;;;11.33;78.29
46394;BME280;32099;53.588;10.176;2023-03-14T03:59:21;98280.88;;;11.36;78.05
46394;BME280;32099;53.588;10.176;2023-03-14T04:01:46;98283.78;;;11.29;78.19
46394;BME280;32099;53.588;10.176;2023-03-14T04:04:12;98286.72;;;11.27;78.04
46394;BME280;32099;53.588;10.176;2023-03-14T04:06:38;98281.53;;;11.26;78.12
46394;BME280;32099;53.588;10.176;2023-03-14T04:09:03;98278.31;;;11.29;77.60
46394;BME280;32099;53.588;10.176;2023-03-14T04:11:28;98265.75;;;11.28;77.95
46394;BME280;32099;53.588;10.176;2023-03-14T04:13:54;98282.13;;;11.28;77.43
46394;BME280;32099;53.588;10.176;2023-03-14T04:16:23;98266.81;;;11.27;77.57
46394;BME280;32099;53.588;10.176;2023-03-14T04:18:50;98273.94;;;11.28;77.81
46394;BME280;32099;53.588;10.176;2023-03-14T04:21:16;98265.50;;;11.30;77.32
46394;BME280;32099;53.588;10.176;2023-03-14T04:23:41;98273.19;;;11.33;77.33
46394;BME280;32099;53.588;10.176;2023-03-14T04:26:07;98261.97;;;11.29;77.73
46394;BME280;32099;53.588;10.176;2023-03-14T04:28:32;98257.84;;;11.26;77.53
46394;BME280;32099;53.588;10.176;2023-03-14T04:30:57;98256.41;;;11.24;77.82
46394;BME280;32099;53.588;10.176;2023-03-14T04:33:23;98259.97;;;11.24;77.43
46394;BME280;32099;53.588;10.176;2023-03-14T04:35:48;98245.25;;;11.25;77.47
46394;BME280;32099;53.588;10.176;2023-03-14T04:38:15;98243.34;;;11.26;77.37
46394;BME280;32099;53.588;10.176;2023-03-14T04:40:40;98249.38;;;11.28;77.26
46394;BME280;32099;53.588;10.176;2023-03-14T04:43:07;98240.94;;;11.30;76.86
46394;BME280;32099;53.588;10.176;2023-03-14T04:45:34;98244.50;;;11.30;77.19
46394;BME280;32099;53.588;10.176;2023-03-14T04:47:59;98251.63;;;11.31;77.12
46394;BME280;32099;53.588;10.176;2023-03-14T04:50:25;98243.19;;;11.33;76.88
46394;BME280;32099;53.588;10.176;2023-03-14T04:52:50;98238.00;;;11.31;76.98
46394;BME280;32099;53.588;10.176;2023-03-14T04:55:15;98231.19;;;11.34;76.80
46394;BME280;32099;53.588;10.176;2023-03-14T04:57:41;98237.22;;;11.36;76.81
46394;BME280;32099;53.588;10.176;2023-03-14T05:00:06;98236.16;;;11.37;76.38
46394;BME280;32099;53.588;10.176;2023-03-14T05:02:32;98226.91;;;11.38;76.36
46394;BME280;32099;53.588;10.176;2023-03-14T05:04:58;98229.38;;;11.39;76.17
46394;BME280;32099;53.588;10.176;2023-03-14T05:07:23;98218.72;;;11.38;76.17
46394;BME280;32099;53.588;10.176;2023-03-14T05:09:49;98222.59;;;11.42;76.00
46394;BME280;32099;53.588;10.176;2023-03-14T05:12:14;98222.09;;;11.45;75.85
46394;BME280;32099;53.588;10.176;2023-03-14T05:14:39;98220.44;;;11.44;75.56
46394;BME280;32099;53.588;10.176;2023-03-14T05:17:05;98219.69;;;11.49;75.46
46394;BME280;32099;53.588;10.176;2023-03-14T05:19:30;98218.34;;;11.51;75.26
46394;BME280;32099;53.588;10.176;2023-03-14T05:21:56;98228.19;;;11.52;75.46
46394;BME280;32099;53.588;10.176;2023-03-14T05:24:21;98216.72;;;11.50;75.58
46394;BME280;32099;53.588;10.176;2023-03-14T05:26:47;98219.69;;;11.49;76.35
46394;BME280;32099;53.588;10.176;2023-03-14T05:29:12;98223.75;;;11.46;76.26
46394;BME280;32099;53.588;10.176;2023-03-14T05:31:37;98217.97;;;11.42;76.21
46394;BME280;32099;53.588;10.176;2023-03-14T05:34:03;98208.34;;;11.40;76.08
46394;BME280;32099;53.588;10.176;2023-03-14T05:36:28;98223.44;;;11.42;76.26
46394;BME280;32099;53.588;10.176;2023-03-14T05:38:53;98225.06;;;11.44;80.49
46394;BME280;32099;53.588;10.176;2023-03-14T05:41:19;98214.97;;;11.44;82.18
46394;BME280;32099;53.588;10.176;2023-03-14T05:43:45;98225.31;;;11.42;82.38
46394;BME280;32099;53.588;10.176;2023-03-14T05:46:11;98219.53;;;11.38;82.65
46394;BME280;32099;53.588;10.176;2023-03-14T05:48:36;98217.81;;;11.32;83.16
46394;BME280;32099;53.588;10.176;2023-03-14T05:51:01;98213.84;;;11.23;83.84
46394;BME280;32099;53.588;10.176;2023-03-14T05:53:27;98214.59;;;11.18;83.98
46394;BME280;32099;53.588;10.176;2023-03-14T05:55:54;98199.81;;;11.14;84.40
46394;BME280;32099;53.588;10.176;2023-03-14T05:58:19;98219.41;;;11.11;84.34
46394;BME280;32099;53.588;10.176;2023-03-14T06:00:45;98211.38;;;11.04;84.69
46394;BME280;32099;53.588;10.176;2023-03-14T06:03:10;98210.22;;;11.00;84.70
46394;BME280;32099;53.588;10.176;2023-03-14T06:05:35;98209.66;;;10.98;82.70
46394;BME280;32099;53.588;10.176;2023-03-14T06:08:01;98201.72;;;10.96;81.05
46394;BME280;32099;53.588;10.176;2023-03-14T06:10:26;98201.53;;;11.03;80.83
46394;BME280;32099;53.588;10.176;2023-03-14T06:12:51;98195.81;;;11.05;81.06
46394;BME280;32099;53.588;10.176;2023-03-14T06:15:17;98203.09;;;10.99;81.21
46394;BME280;32099;53.588;10.176;2023-03-14T06:17:42;98207.09;;;10.91;81.59
46394;BME280;32099;53.588;10.176;2023-03-14T06:20:08;98215.50;;;10.90;81.99
46394;BME280;32099;53.588;10.176;2023-03-14T06:22:34;98205.44;;;10.90;81.28
46394;BME280;32099;53.588;10.176;2023-03-14T06:24:59;98204.59;;;10.90;81.38
46394;BME280;32099;53.588;10.176;2023-03-14T06:27:25;98202.13;;;10.88;81.24
46394;BME280;32099;53.588;10.176;2023-03-14T06:29:50;98203.78;;;10.89;80.60
46394;BME280;32099;53.588;10.176;2023-03-14T06:32:15;98209.56;;;10.93;80.79
46394;BME280;32099;53.588;10.176;2023-03-14T06:34:40;98209.47;;;10.88;80.37
46394;BME280;32099;53.588;10.176;2023-03-14T06:37:06;98218.97;;;10.85;81.88
46394;BME280;32099;53.588;10.176;2023-03-14T06:39:31;98208.31;;;10.84;82.36
46394;BME280;32099;53.588;10.176;2023-03-14T06:41:56;98220.19;;;10.77;81.82
46394;BME280;32099;53.588;10.176;2023-03-14T06:44:22;98224.41;;;10.85;80.98
46394;BME280;32099;53.588;10.176;2023-03-14T06:46:47;98221.78;;;10.90;81.34
46394;BME280;32099;53.588;10.176;2023-03-14T06:49:12;98227.25;;;10.90;81.12
46394;BME280;32099;53.588;10.176;2023-03-14T06:51:38;98243.59;;;10.90;80.52
46394;BME280;32099;53.588;10.176;2023-03-14T06:54:03;98248.53;;;10.93;80.47
46394;BME280;32099;53.588;10.176;2023-03-14T06:56:28;98253.84;;;11.00;79.81
46394;BME280;32099;53.588;10.176;2023-03-14T06:58:54;98243.84;;;11.06;78.90
46394;BME280;32099;53.588;10.176;2023-03-14T07:01:23;98248.22;;;11.07;78.11
46394;BME280;32099;53.588;10.176;2023-03-14T07:03:50;98256.19;;;11.08;77.38
46394;BME280;32099;53.588;10.176;2023-03-14T07:06:15;98260.47;;;11.04;76.94
46394;BME280;32099;53.588;10.176;2023-03-14T07:08:40;98261.53;;;11.03;76.77
46394;BME280;32099;53.588;10.176;2023-03-14T07:11:06;98264.25;;;11.03;76.64
46394;BME280;32099;53.588;10.176;2023-03-14T07:13:32;98269.97;;;11.02;76.20
46394;BME280;32099;53.588;10.176;2023-03-14T07:15:57;98270.94;;;10.95;75.99
46394;BME280;32099;53.588;10.176;2023-03-14T07:18:22;98263.81;;;10.94;75.64
46394;BME280;32099;53.588;10.176;2023-03-14T07:20:48;98268.53;;;10.99;76.15
46394;BME280;32099;53.588;10.176;2023-03-14T07:23:13;98278.97;;;11.02;74.99
46394;BME280;32099;53.588;10.176;2023-03-14T07:25:38;98276.50;;;11.01;75.70
46394;BME280;32099;53.588;10.176;2023-03-14T07:28:04;98273.28;;;11.04;75.69
46394;BME280;32099;53.588;10.176;2023-03-14T07:30:29;98276.06;;;11.09;76.30
46394;BME280;32099;53.588;10.176;2023-03-14T07:32:54;98272.59;;;11.14;75.88
46394;BME280;32099;53.588;10.176;2023-03-14T07:35:19;98282.78;;;11.18;75.67
46394;BME280;32099;53.588;10.176;2023-03-14T07:37:45;98289.13;;;11.24;76.04
46394;BME280;32099;53.588;10.176;2023-03-14T07:40:10;98282.13;;;11.28;75.73
46394;BME280;32099;53.588;10.176;2023-03-14T07:42:39;98295.00;;;11.33;76.14
46394;BME280;32099;53.588;10.176;2023-03-14T07:45:05;98288.97;;;11.31;75.77
46394;BME280;32099;53.588;10.176;2023-03-14T07:47:31;98286.00;;;11.32;75.26
46394;BME280;32099;53.588;10.176;2023-03-14T07:49:56;98293.19;;;11.38;75.75
46394;BME280;32099;53.588;10.176;2023-03-14T07:52:21;98292.94;;;11.40;75.23
46394;BME280;32099;53.588;10.176;2023-03-14T07:54:46;98288.91;;;11.42;74.39
46394;BME280;32099;53.588;10.176;2023-03-14T07:57:12;98289.22;;;11.46;74.02
46394;BME280;32099;53.588;10.176;2023-03-14T07:59:37;98275.81;;;11.45;73.99
46394;BME280;32099;53.588;10.176;2023-03-14T08:02:02;98280.28;;;11.51;74.51
46394;BME280;32099;53.588;10.176;2023-03-14T08:04:30;98282.44;;;11.49;73.51
46394;BME280;32099;53.588;10.176;2023-03-14T08:06:55;98287.09;;;11.48;73.37
46394;BME280;32099;53.588;10.176;2023-03-14T08:09:21;98281.38;;;11.50;74.22
46394;BME280;32099;53.588;10.176;2023-03-14T08:11:46;98287.56;;;11.45;73.31
46394;BME280;32099;53.588;10.176;2023-03-14T08:14:11;98288.91;;;11.42;72.95
46394;BME280;32099;53.588;10.176;2023-03-14T08:16:36;98300.38;;;11.45;73.34
46394;BME280;32099;53.588;10.176;2023-03-14T08:19:02;98295.66;;;11.40;72.58
46394;BME280;32099;53.588;10.176;2023-03-14T08:21:27;98282.59;;;11.42;74.09
46394;BME280;32099;53.588;10.176;2023-03-14T08:23:52;98285.16;;;11.49;73.26
46394;BME280;32099;53.588;10.176;2023-03-14T08:26:18;98278.72;;;11.55;73.36
46394;BME280;32099;53.588;10.176;2023-03-14T08:28:43;98278.13;;;11.70;73.90
46394;BME280;32099;53.588;10.176;2023-03-14T08:31:08;98287.03;;;11.82;72.69
46394;BME280;32099;53.588;10.176;2023-03-14T08:33:33;98272.53;;;11.82;72.73
46394;BME280;32099;53.588;10.176;2023-03-14T08:35:59;98279.91;;;11.81;71.87
46394;BME280;32099;53.588;10.176;2023-03-14T08:38:25;98278.59;;;11.84;72.47
46394;BME280;32099;53.588;10.176;2023-03-14T08:40:57;98280.88;;;11.92;72.26
46394;BME280;32099;53.588;10.176;2023-03-14T08:43:23;98279.31;;;11.96;72.07
46394;BME280;32099;53.588;10.176;2023-03-14T08:45:48;98284.28;;;11.99;72.63
46394;BME280;32099;53.588;10.176;2023-03-14T08:48:14;98271.28;;;12.07;72.79
46394;BME280;32099;53.588;10.176;2023-03-14T08:50:39;98264.16;;;12.06;71.43
46394;BME280;32099;53.588;10.176;2023-03-14T08:53:04;98279.31;;;11.96;71.15
46394;BME280;32099;53.588;10.176;2023-03-14T08:55:29;98269.00;;;11.98;72.01
46394;BME280;32099;53.588;10.176;2023-03-14T08:57:55;98268.81;;;12.05;72.35
46394;BME280;32099;53.588;10.176;2023-03-14T09:00:21;98279.78;;;12.10;71.81
46394;BME280;32099;53.588;10.176;2023-03-14T09:02:47;98260.34;;;12.07;71.49
46394;BME280;32099;53.588;10.176;2023-03-14T09:05:12;98259.44;;;12.01;71.58
46394;BME280;32099;53.588;10.176;2023-03-14T09:07:38;98275.50;;;11.97;71.66
46394;BME280;32099;53.588;10.176;2023-03-14T09:10:04;98271.09;;;11.96;73.71
46394;BME280;32099;53.588;10.176;2023-03-14T09:12:29;98263.53;;;11.98;73.41
46394;BME280;32099;53.588;10.176;2023-03-14T09:14:55;98275.25;;;11.99;73.82
46394;BME280;32099;53.588;10.176;2023-03-14T09:17:21;98264.50;;;11.92;73.81
46394;BME280;32099;53.588;10.176;2023-03-14T09:19:46;98267.47;;;11.91;74.38
46394;BME280;32099;53.588;10.176;2023-03-14T09:22:11;98270.78;;;11.93;74.94
46394;BME280;32099;53.588;10.176;2023-03-14T09:24:36;98269.13;;;11.92;74.70
46394;BME280;32099;53.588;10.176;2023-03-14T09:27:02;98266.66;;;11.90;74.95
46394;BME280;32099;53.588;10.176;2023-03-14T09:29:27;98274.03;;;11.89;74.85
46394;BME280;32099;53.588;10.176;2023-03-14T09:31:52;98275.94;;;11.89;74.78
46394;BME280;32099;53.588;10.176;2023-03-14T09:34:18;98265.56;;;11.91;74.15
46394;BME280;32099;53.588;10.176;2023-03-14T09:36:44;98272.13;;;11.90;73.95
46394;BME280;32099;53.588;10.176;2023-03-14T09:39:09;98272.38;;;11.88;74.78
46394;BME280;32099;53.588;10.176;2023-03-14T09:41:36;98274.59;;;11.92;74.38
46394;BME280;32099;53.588;10.176;2023-03-14T09:44:08;98273.53;;;11.93;74.12
46394;BME280;32099;53.588;10.176;2023-03-14T09:46:38;98286.34;;;11.92;74.32
46394;BME280;32099;53.588;10.176;2023-03-14T09:49:12;98292.38;;;11.94;74.79
46394;BME280;32099;53.588;10.176;2023-03-14T09:51:44;98295.69;;;11.96;74.60
46394;BME280;32099;53.588;10.176;2023-03-14T09:57:16;98312.09;;;11.79;77.67
46394;BME280;32099;53.588;10.176;2023-03-14T09:59:44;98313.59;;;11.70;79.16
46394;BME280;32099;53.588;10.176;2023-03-14T10:02:21;98314.03;;;11.62;78.45
46394;BME280;32099;53.588;10.176;2023-03-14T10:04:53;98312.03;;;11.57;79.63
46394;BME280;32099;53.588;10.176;2023-03-14T10:07:29;98337.00;;;11.49;79.22
46394;BME280;32099;53.588;10.176;2023-03-14T10:09:56;98384.22;;;11.32;79.60
46394;BME280;32099;53.588;10.176;2023-03-14T10:12:32;98386.16;;;11.03;78.61
46394;BME280;32099;53.588;10.176;2023-03-14T10:15:02;98393.34;;;10.80;78.84
46394;BME280;32099;53.588;10.176;2023-03-14T10:17:37;98400.28;;;10.47;79.60
46394;BME280;32099;53.588;10.176;2023-03-14T10:20:15;98411.19;;;10.23;79.40
46394;BME280;32099;53.588;10.176;2023-03-14T10:22:57;98421.97;;;10.06;79.83
46394;BME280;32099;53.588;10.176;2023-03-14T10:25:36;98435.81;;;9.93;79.61
46394;BME280;32099;53.588;10.176;2023-03-14T10:28:03;98448.78;;;9.79;80.59
46394;BME280;32099;53.588;10.176;2023-03-14T10:30:30;98456.44;;;9.58;80.60
46394;BME280;32099;53.588;10.176;2023-03-14T10:33:18;98457.31;;;9.40;79.87
46394;BME280;32099;53.588;10.176;2023-03-14T10:35:56;98474.06;;;9.25;79.49
46394;BME280;32099;53.588;10.176;2023-03-14T10:38:25;98491.03;;;9.08;80.06
46394;BME280;32099;53.588;10.176;2023-03-14T10:41:00;98499.56;;;8.93;79.73
46394;BME280;32099;53.588;10.176;2023-03-14T10:43:31;98507.03;;;8.79;79.56
46394;BME280;32099;53.588;10.176;2023-03-14T10:45:59;98515.75;;;8.63;79.92
46394;BME280;32099;53.588;10.176;2023-03-14T10:48:46;98535.78;;;8.43;79.38
46394;BME280;32099;53.588;10.176;2023-03-14T10:56:15;98592.41;;;7.82;76.86
46394;BME280;32099;53.588;10.176;2023-03-14T10:58:44;98597.34;;;7.60;77.80
46394;BME280;32099;53.588;10.176;2023-03-14T11:01:15;98621.56;;;7.48;78.63
46394;BME280;32099;53.588;10.176;2023-03-14T11:03:53;98622.25;;;7.37;78.79
46394;BME280;32099;53.588;10.176;2023-03-14T11:06:43;98642.94;;;7.24;78.49
46394;BME280;32099;53.588;10.176;2023-03-14T11:11:44;98662.78;;;7.05;77.98
46394;BME280;32099;53.588;10.176;2023-03-14T11:14:15;98679.91;;;6.92;78.26
46394;BME280;32099;53.588;10.176;2023-03-14T11:16:51;98698.44;;;6.75;78.06
46394;BME280;32099;53.588;10.176;2023-03-14T11:22:35;98726.38;;;6.55;78.27
46394;BME280;32099;53.588;10.176;2023-03-14T11:30:58;98748.78;;;6.36;78.07
46394;BME280;32099;53.588;10.176;2023-03-14T11:33:56;98755.44;;;6.26;76.77
46394;BME280;32099;53.588;10.176;2023-03-14T11:36:24;98774.78;;;6.23;76.41
46394;BME280;32099;53.588;10.176;2023-03-14T11:38:56;98780.56;;;6.07;76.04
46394;BME280;32099;53.588;10.176;2023-03-14T11:41:24;98795.66;;;5.94;77.31
46394;BME280;32099;53.588;10.176;2023-03-14T11:44:01;98796.91;;;5.92;77.96
46394;BME280;32099;53.588;10.176;2023-03-14T11:46:36;98818.34;;;5.93;77.99
46394;BME280;32099;53.588;10.176;2023-03-14T11:49:11;98826.88;;;5.97;77.36
46394;BME280;32099;53.588;10.176;2023-03-14T11:51:55;98838.41;;;6.06;77.87
46394;BME280;32099;53.588;10.176;2023-03-14T11:54:28;98833.22;;;6.11;76.23
46394;BME280;32099;53.588;10.176;2023-03-14T11:57:04;98839.31;;;6.20;76.06
46394;BME280;32099;53.588;10.176;2023-03-14T12:00:37;98853.28;;;6.23;74.97
46394;BME280;32099;53.588;10.176;2023-03-14T12:02:43;98853.94;;;6.32;75.14
46394;BME280;32099;53.588;10.176;2023-03-14T12:05:31;98857.34;;;6.47;74.16
46394;BME280;32099;53.588;10.176;2023-03-14T12:08:27;98851.53;;;6.57;73.30
46394;BME280;32099;53.588;10.176;2023-03-14T12:11:11;98856.16;;;6.63;72.72
46394;BME280;32099;53.588;10.176;2023-03-14T12:13:40;98847.81;;;6.65;71.78
46394;BME280;32099;53.588;10.176;2023-03-14T12:21:46;98874.84;;;6.52;68.76
46394;BME280;32099;53.588;10.176;2023-03-14T12:24:33;98892.13;;;6.51;70.31
46394;BME280;32099;53.588;10.176;2023-03-14T12:27:01;98893.78;;;6.52;69.79
46394;BME280;32099;53.588;10.176;2023-03-14T12:29:29;98917.34;;;6.51;70.34
46394;BME280;32099;53.588;10.176;2023-03-14T12:34:26;98914.41;;;6.53;70.55
46394;BME280;32099;53.588;10.176;2023-03-14T12:37:14;98922.97;;;6.56;69.38
46394;BME280;32099;53.588;10.176;2023-03-14T12:45:01;98945.53;;;6.63;70.04
46394;BME280;32099;53.588;10.176;2023-03-14T12:50:13;98946.81;;;6.74;70.80
46394;BME280;32099;53.588;10.176;2023-03-14T12:52:50;98949.53;;;6.81;69.43
46394;BME280;32099;53.588;10.176;2023-03-14T12:55:40;98959.94;;;6.77;69.31
46394;BME280;32099;53.588;10.176;2023-03-14T13:01:05;98972.50;;;6.85;70.91
46394;BME280;32099;53.588;10.176;2023-03-14T13:03:47;98999.38;;;6.87;69.43
46394;BME280;32099;53.588;10.176;2023-03-14T13:06:44;99006.69;;;6.86;68.46
46394;BME280;32099;53.588;10.176;2023-03-14T13:11:56;99008.72;;;6.77;69.42
46394;BME280;32099;53.588;10.176;2023-03-14T13:14:27;99018.91;;;6.75;69.64
46394;BME280;32099;53.588;10.176;2023-03-14T13:16:54;99032.47;;;6.82;70.37
46394;BME280;32099;53.588;10.176;2023-03-14T13:19:21;99033.84;;;7.00;70.68
46394;BME280;32099;53.588;10.176;2023-03-14T13:21:50;99036.19;;;7.16;70.88
46394;BME280;32099;53.588;10.176;2023-03-14T13:24:23;99047.06;;;7.30;70.43
46394;BME280;32099;53.588;10.176;2023-03-14T13:26:51;99038.56;;;7.39;69.37
46394;BME280;32099;53.588;10.176;2023-03-14T13:29:19;99049.59;;;7.38;68.97
46394;BME280;32099;53.588;10.176;2023-03-14T13:31:51;99064.66;;;7.47;67.96
46394;BME280;32099;53.588;10.176;2023-03-14T13:34:18;99060.88;;;7.48;67.94
46394;BME280;32099;53.588;10.176;2023-03-14T13:36:44;99082.00;;;7.53;66.92
46394;BME280;32099;53.588;10.176;2023-03-14T13:39:10;99083.47;;;7.55;66.88
46394;BME280;32099;53.588;10.176;2023-03-14T13:41:39;99081.56;;;7.56;63.80